Date,TemperatureHighF,TemperatureAvgF,TemperatureLowF,DewpointHighF,DewpointAvgF,DewpointLowF,HumidityHigh,HumidityAvg,HumidityLow,PressureMaxIn,PressureMinIn,WindSpeedMaxMPH,WindSpeedAvgMPH,GustSpeedMaxMPH,PrecipitationSumIn
2013-3-1,61,55,51,51,49,47,88,82,66,30.18,30.05,9,2,13,0.00
2013-3-2,55,49,41,48,45,36,92,84,76,30.05,29.89,13,1,16,0.04
2013-3-3,52,40,30,38,34,27,90,78,54,30.06,29.99,6,0,8,0.00
2013-3-4,60,43,31,33,30,28,90,65,30,30.00,29.64,7,1,12,0.01
2013-3-5,48,41,34,43,37,30,89,86,78,29.65,29.38,6,1,10,0.30
2013-3-6,44,42,40,41,39,37,92,89,85,29.70,29.28,17,2,17,0.35
2013-3-7,61,45,34,41,36,31,91,73,38,29.80,29.70,8,1,13,0.00
2013-3-8,63,45,30,40,34,27,90,69,31,29.95,29.76,8,1,12,0.00
2013-3-9,61,44,29,41,35,27,90,74,41,30.23,29.95,6,0,8,0.00
2013-3-10,51,43,34,42,38,32,90,82,69,30.23,30.16,2,0,4,0.00
2013-3-11,55,49,43,49,45,40,89,85,76,30.16,29.97,5,0,8,0.00
2013-3-12,60,54,48,49,47,44,89,79,60,29.97,29.88,11,2,13,0.00
2013-3-13,66,54,48,50,47,44,90,76,54,29.96,29.81,6,0,9,0.00
2013-3-14,58,52,47,48,45,39,92,78,52,29.95,29.78,12,1,14,0.00
2013-3-15,64,54,48,50,47,43,89,76,54,29.97,29.89,5,1,10,0.00
2013-3-16,50,46,38,45,42,35,89,85,73,29.91,29.74,10,2,18,0.10
2013-3-17,52,42,36,37,34,31,89,73,52,30.04,29.88,11,2,15,0.01
2013-3-18,55,43,34,38,35,31,90,75,51,30.02,29.89,8,1,11,0.00
2013-3-19,52,44,37,45,38,34,89,82,53,29.90,29.40,5,0,7,0.58
2013-3-20,53,48,39,49,42,33,89,80,65,29.90,29.26,19,5,28,0.41
2013-3-21,50,41,37,38,35,32,89,78,54,30.06,29.90,11,3,19,0.04
2013-3-22,49,38,30,39,33,28,90,82,53,30.14,30.04,12,1,15,0.02
2013-3-23,53,40,32,36,31,26,90,74,39,30.14,30.02,5,0,9,0.01
2013-3-24,59,45,34,35,32,30,88,64,38,30.02,29.82,12,1,12,0.00
2013-3-25,63,51,40,42,34,28,83,55,32,29.82,29.64,8,1,13,0.00
2013-3-26,52,46,38,46,41,35,89,85,75,29.76,29.69,4,0,7,0.01
2013-3-27,67,52,40,49,44,37,90,75,45,29.73,29.62,6,1,12,0.00
2013-3-28,70,54,43,50,45,40,92,73,44,29.86,29.72,9,0,10,0.00
2013-3-29,70,58,48,52,48,45,89,73,44,29.94,29.86,7,0,8,0.03
2013-3-30,82,60,41,51,46,38,89,63,30,29.91,29.70,10,0,10,0.00
2013-3-31,77,61,44,53,48,40,88,65,37,29.72,29.62,6,1,13,0.00